Time;durP1;ratioP1;P1;durP2;ratioP2;P2;SDS_P1;SDS_P2;PMS_P1;PMS_P2;Temp;Humidity;BMP_temperature;BMP_pressure;BME280_temperature;BME280_humidity;BME280_pressure;Samples;Min_cycle;Max_cycle;Signal;HPM_P1;HPM_P2
2023/01/22 00:02:49;;;;;;;9.47;7.03;;;;;;;-1.64;nan;98065.72;6241506;28;20235;-62
2023/01/22 00:05:51;;;;;;;10.40;7.70;;;;;;;-1.64;nan;98060.53;6239903;28;20574;-62
2023/01/22 00:08:54;;;;;;;9.57;7.23;;;;;;;-1.65;nan;98062.28;6242701;28;20273;-61
2023/01/22 00:11:57;;;;;;;9.50;7.23;;;;;;;-1.65;nan;98064.88;6240939;28;20245;-61
2023/01/22 00:15:00;;;;;;;10.07;7.27;;;;;;;-1.64;nan;98066.56;6244190;28;20227;-61
2023/01/22 00:18:02;;;;;;;10.30;8.10;;;;;;;-1.64;nan;98056.22;6238012;28;20234;-61
2023/01/22 00:21:05;;;;;;;9.03;7.33;;;;;;;-1.63;nan;98057.06;6243612;28;20219;-62
2023/01/22 00:24:08;;;;;;;10.23;7.20;;;;;;;-1.65;nan;98051.94;6241345;28;20239;-62
2023/01/22 00:27:11;;;;;;;10.33;7.80;;;;;;;-1.65;nan;98064.88;6245826;28;20274;-62
2023/01/22 00:30:14;;;;;;;9.13;7.80;;;;;;;-1.67;nan;98064.03;6242051;28;20691;-62
2023/01/22 00:33:17;;;;;;;9.63;7.70;;;;;;;-1.65;nan;98064.00;6243618;28;20215;-61
2023/01/22 00:36:22;;;;;;;13.57;8.40;;;;;;;-1.64;nan;98069.16;6243122;28;20231;-62
2023/01/22 00:39:24;;;;;;;9.90;7.97;;;;;;;-1.65;nan;98069.19;6225121;28;20234;-61
2023/01/22 00:42:26;;;;;;;10.00;8.43;;;;;;;-1.64;nan;98074.31;6242905;28;20300;-62
2023/01/22 00:45:29;;;;;;;14.90;9.50;;;;;;;-1.64;nan;98068.31;6241356;28;20332;-62
2023/01/22 00:48:34;;;;;;;10.67;8.80;;;;;;;-1.65;nan;98067.44;6241177;28;20223;-62
2023/01/22 00:51:38;;;;;;;12.00;8.23;;;;;;;-1.67;nan;98068.38;6242386;28;20298;-62
2023/01/22 00:54:40;;;;;;;12.43;9.67;;;;;;;-1.67;nan;98069.22;6240618;28;20317;-62
2023/01/22 00:57:42;;;;;;;13.00;9.47;;;;;;;-1.67;nan;98065.78;6241836;28;20342;-62
2023/01/22 01:00:44;;;;;;;12.87;9.63;;;;;;;-1.64;nan;98063.13;6239026;28;20239;-62
2023/01/22 01:03:47;;;;;;;14.83;9.57;;;;;;;-1.64;nan;98073.47;6239301;28;20224;-62
2023/01/22 01:06:49;;;;;;;14.27;10.10;;;;;;;-1.63;nan;98080.34;6225483;28;20227;-62
2023/01/22 01:09:51;;;;;;;12.53;9.83;;;;;;;-1.62;nan;98082.06;6238686;28;20701;-61
2023/01/22 01:12:54;;;;;;;13.40;9.97;;;;;;;-1.63;nan;98086.38;6226158;28;20229;-62
2023/01/22 01:16:01;;;;;;;15.07;10.50;;;;;;;-1.62;nan;98093.25;6223051;28;20242;-62
2023/01/22 01:19:07;;;;;;;12.90;9.33;;;;;;;-1.61;nan;98092.38;6236750;28;20229;-62
2023/01/22 01:22:09;;;;;;;11.73;8.83;;;;;;;-1.60;nan;98106.16;6242306;28;20730;-61
2023/01/22 01:25:11;;;;;;;13.53;9.60;;;;;;;-1.59;nan;98113.00;6223604;28;20568;-62
2023/01/22 01:28:16;;;;;;;14.33;10.27;;;;;;;-1.60;nan;98114.75;6237736;28;20270;-62
2023/01/22 01:31:21;;;;;;;14.13;9.90;;;;;;;-1.59;nan;98113.00;6222532;28;20235;-62
2023/01/22 01:34:26;;;;;;;14.13;10.00;;;;;;;-1.59;nan;98108.69;6240481;28;20684;-62
2023/01/22 01:37:28;;;;;;;13.00;9.57;;;;;;;-1.59;nan;98116.44;6240135;28;20236;-62
2023/01/22 01:40:31;;;;;;;14.00;10.47;;;;;;;-1.59;nan;98126.78;6222429;28;20264;-62
2023/01/22 01:43:34;;;;;;;14.00;9.80;;;;;;;-1.59;nan;98120.78;6240110;28;20234;-61
2023/01/22 01:46:43;;;;;;;13.87;10.20;;;;;;;-1.59;nan;98113.00;6236932;28;20302;-61
2023/01/22 01:49:49;;;;;;;15.57;11.40;;;;;;;-1.60;nan;98106.97;6233401;28;20216;-62
2023/01/22 01:52:52;;;;;;;13.73;10.57;;;;;;;-1.60;nan;98104.41;6241422;28;20223;-62
2023/01/22 01:55:57;;;;;;;14.47;9.90;;;;;;;-1.58;nan;98099.19;6237083;28;20314;-62
2023/01/22 01:59:06;;;;;;;13.93;10.77;;;;;;;-1.59;nan;98102.66;6221340;28;20246;-62
2023/01/22 02:02:09;;;;;;;14.67;10.90;;;;;;;-1.59;nan;98102.66;6238099;28;20227;-62
2023/01/22 02:05:12;;;;;;;11.77;9.20;;;;;;;-1.58;nan;98097.44;6236823;28;20234;-62
2023/01/22 02:08:16;;;;;;;15.30;10.20;;;;;;;-1.57;nan;98081.03;6240704;28;20227;-62
2023/01/22 02:11:19;;;;;;;13.43;9.97;;;;;;;-1.59;nan;98077.63;6218079;28;20236;-62
2023/01/22 02:14:30;;;;;;;14.63;10.20;;;;;;;-1.59;nan;98090.56;6224043;28;20223;-62
2023/01/22 02:17:34;;;;;;;12.43;9.57;;;;;;;-1.59;nan;98090.56;6223386;28;20222;-62
2023/01/22 02:20:40;;;;;;;13.83;10.53;;;;;;;-1.61;nan;98099.28;6238921;28;20587;-62
2023/01/22 02:23:42;;;;;;;13.83;10.87;;;;;;;-1.64;nan;98107.97;6236111;28;20726;-62
2023/01/22 02:26:45;;;;;;;16.13;11.13;;;;;;;-1.64;nan;98092.44;6238737;28;20698;-62
2023/01/22 02:29:52;;;;;;;17.57;11.70;;;;;;;-1.64;nan;98083.81;6238734;28;20231;-61
2023/01/22 02:32:54;;;;;;;13.90;10.97;;;;;;;-1.64;nan;98089.84;6221193;28;20424;-62
2023/01/22 02:35:57;;;;;;;17.93;12.00;;;;;;;-1.66;nan;98076.09;6205693;28;20231;-62
2023/01/22 02:39:01;;;;;;;16.03;11.10;;;;;;;-1.67;nan;98076.97;6224489;28;20257;-62
2023/01/22 02:42:04;;;;;;;13.33;10.40;;;;;;;-1.68;nan;98077.88;6240136;28;20227;-61
2023/01/22 02:45:07;;;;;;;14.77;11.13;;;;;;;-1.67;nan;98082.16;6222982;28;20242;-62
2023/01/22 02:48:09;;;;;;;14.60;10.63;;;;;;;-1.65;nan;98084.72;6220948;28;20746;-62
2023/01/22 02:51:11;;;;;;;14.87;10.37;;;;;;;-1.66;nan;98093.34;6222317;28;20345;-62
2023/01/22 02:54:15;;;;;;;16.00;10.50;;;;;;;-1.67;nan;98097.69;6222730;28;20203;-62
2023/01/22 02:57:19;;;;;;;15.80;11.00;;;;;;;-1.65;nan;98098.50;6236295;28;20215;-62
2023/01/22 03:00:21;;;;;;;14.77;10.50;;;;;;;-1.65;nan;98095.91;6220317;28;20312;-61
2023/01/22 03:03:24;;;;;;;13.63;9.87;;;;;;;-1.65;nan;98089.88;6220437;28;20230;-62
2023/01/22 03:06:29;;;;;;;14.13;10.77;;;;;;;-1.67;nan;98086.47;6240707;28;20235;-62
2023/01/22 03:09:34;;;;;;;15.00;10.77;;;;;;;-1.68;nan;98080.44;6201759;28;20277;-62
2023/01/22 03:22:45;;;;;;;15.77;10.93;;;;;;;-1.69;nan;98076.16;6217146;28;20220;-62
2023/01/22 03:25:47;;;;;;;15.77;12.03;;;;;;;-1.69;nan;98076.16;6221423;28;20241;-62
2023/01/22 03:28:50;;;;;;;15.97;11.10;;;;;;;-1.69;nan;98060.63;6222081;28;20602;-62
2023/01/22 03:31:52;;;;;;;15.60;10.90;;;;;;;-1.69;nan;98052.03;6219627;28;20343;-62
2023/01/22 03:34:55;;;;;;;15.73;11.10;;;;;;;-1.70;nan;98069.31;6219889;28;20250;-62
2023/01/22 03:38:01;;;;;;;16.07;12.17;;;;;;;-1.69;nan;98075.31;6220278;28;20235;-62
2023/01/22 03:41:10;;;;;;;13.83;10.87;;;;;;;-1.69;nan;98071.00;6217384;28;20317;-62
2023/01/22 03:44:16;;;;;;;15.50;11.33;;;;;;;-1.70;nan;98071.91;6202874;28;20646;-62
2023/01/22 03:47:18;;;;;;;15.90;11.77;;;;;;;-1.69;nan;98080.50;6215921;28;20270;-62
2023/01/22 03:50:21;;;;;;;15.27;11.10;;;;;;;-1.69;nan;98088.25;6238993;28;20219;-62
2023/01/22 03:53:23;;;;;;;15.50;10.90;;;;;;;-1.67;nan;98099.41;6221769;28;20624;-62
2023/01/22 03:56:27;;;;;;;18.33;11.77;;;;;;;-1.68;nan;98101.16;6216260;28;20255;-62
2023/01/22 03:59:34;;;;;;;17.77;12.17;;;;;;;-1.67;nan;98102.00;6216996;28;20235;-62
2023/01/22 04:02:36;;;;;;;15.63;11.23;;;;;;;-1.67;nan;98102.00;6222726;28;20235;-62
2023/01/22 04:05:49;;;;;;;16.03;11.93;;;;;;;-1.68;nan;98088.22;6218649;28;20235;-61
2023/01/22 04:08:53;;;;;;;14.83;11.07;;;;;;;-1.68;nan;98089.94;6221390;28;20235;-61
2023/01/22 04:12:02;;;;;;;16.80;11.57;;;;;;;-1.69;nan;98096.88;6219804;28;20252;-62
2023/01/22 04:15:05;;;;;;;18.60;12.63;;;;;;;-1.69;nan;98098.59;6222846;28;20631;-61
2023/01/22 04:18:08;;;;;;;18.80;12.20;;;;;;;-1.69;nan;98091.69;6225120;28;20223;-62
2023/01/22 04:21:29;;;;;;;14.57;10.67;;;;;;;-1.67;nan;98094.25;6238248;28;20235;-62
2023/01/22 04:24:33;;;;;;;16.30;11.57;;;;;;;-1.66;nan;98089.03;6226101;28;20232;-62
2023/01/22 04:27:38;;;;;;;16.67;11.40;;;;;;;-1.68;nan;98088.22;6224842;28;20222;-62
2023/01/22 04:30:41;;;;;;;16.37;11.77;;;;;;;-1.68;nan;98082.19;6227018;28;20223;-62
2023/01/22 04:34:10;;;;;;;18.23;12.17;;;;;;;-1.69;nan;98083.94;6222595;28;20265;-62
2023/01/22 04:37:22;;;;;;;17.67;11.53;;;;;;;-1.71;nan;98080.56;6226369;28;20326;-61
2023/01/22 04:40:25;;;;;;;15.93;11.90;;;;;;;-1.71;nan;98088.31;6222079;28;20402;-62
2023/01/22 04:43:28;;;;;;;17.80;12.37;;;;;;;-1.72;nan;98081.44;6223653;28;20329;-62
2023/01/22 04:46:30;;;;;;;17.20;11.87;;;;;;;-1.73;nan;98077.16;6225604;28;20329;-62
2023/01/22 04:49:32;;;;;;;17.73;12.33;;;;;;;-1.73;nan;98079.72;6241121;28;20243;-62
2023/01/22 04:52:35;;;;;;;16.70;11.77;;;;;;;-1.72;nan;98084.03;6226459;28;20250;-62
2023/01/22 04:55:37;;;;;;;15.33;11.50;;;;;;;-1.74;nan;98088.38;6223718;28;20219;-62
2023/01/22 04:58:42;;;;;;;16.07;11.33;;;;;;;-1.73;nan;98100.44;6225955;28;20235;-62
2023/01/22 05:01:45;;;;;;;17.33;11.47;;;;;;;-1.73;nan;98100.44;6224499;28;20330;-62
2023/01/22 05:04:50;;;;;;;15.80;10.80;;;;;;;-1.72;nan;98103.88;6223382;28;20235;-62
2023/01/22 05:07:53;;;;;;;16.40;11.33;;;;;;;-1.70;nan;98094.34;6217951;28;20930;-62
2023/01/22 05:11:02;;;;;;;17.67;11.77;;;;;;;-1.69;nan;98089.09;6213326;28;20238;-62
2023/01/22 05:14:36;;;;;;;13.97;10.40;;;;;;;-1.69;nan;98104.63;6207220;28;20284;-63
2023/01/22 05:17:39;;;;;;;16.40;11.00;;;;;;;-1.68;nan;98097.72;6215424;28;20298;-63
2023/01/22 05:20:42;;;;;;;14.00;10.53;;;;;;;-1.69;nan;98108.94;6218842;28;20722;-62
2023/01/22 05:23:46;;;;;;;14.83;11.13;;;;;;;-1.68;nan;98110.66;6199572;28;20231;-63
2023/01/22 05:26:48;;;;;;;14.30;10.47;;;;;;;-1.68;nan;98116.69;6230500;28;20234;-62
2023/01/22 05:30:01;;;;;;;16.27;10.77;;;;;;;-1.68;nan;98119.25;6218393;28;20216;-62
2023/01/22 05:33:22;;;;;;;12.43;9.77;;;;;;;-1.69;nan;98124.47;6214815;28;20229;-62
2023/01/22 05:36:28;;;;;;;12.57;9.97;;;;;;;-1.69;nan;98114.97;6191133;28;20753;-63
2023/01/22 05:39:34;;;;;;;15.53;11.10;;;;;;;-1.66;nan;98122.66;6212704;28;20251;-62
2023/01/22 05:42:38;;;;;;;15.50;10.33;;;;;;;-1.65;nan;98128.69;6216311;28;20244;-62
2023/01/22 05:45:42;;;;;;;15.97;10.10;;;;;;;-1.67;nan;98120.13;6210737;28;20242;-62
2023/01/22 05:49:10;;;;;;;14.40;10.03;;;;;;;-1.66;nan;98125.25;6216939;28;20236;-62
2023/01/22 05:52:12;;;;;;;15.20;10.23;;;;;;;-1.66;nan;98120.09;6214163;28;20243;-64
2023/01/22 05:55:14;;;;;;;13.00;9.60;;;;;;;-1.67;nan;98126.13;6218474;28;20743;-62
2023/01/22 05:58:17;;;;;;;15.60;10.33;;;;;;;-1.64;nan;98131.25;6215957;28;20232;-61
2023/01/22 06:01:21;;;;;;;14.53;10.30;;;;;;;-1.65;nan;98129.53;6210192;28;20236;-62
2023/01/22 06:04:25;;;;;;;12.47;9.67;;;;;;;-1.67;nan;98128.72;6215895;28;20252;-62
2023/01/22 06:07:29;;;;;;;14.83;10.77;;;;;;;-1.68;nan;98134.78;6215489;28;20386;-61
2023/01/22 06:10:32;;;;;;;14.13;9.63;;;;;;;-1.67;nan;98136.50;6197027;28;20224;-62
2023/01/22 06:13:36;;;;;;;12.93;9.37;;;;;;;-1.66;nan;98145.97;6215072;28;20322;-62
2023/01/22 06:16:50;;;;;;;13.97;10.30;;;;;;;-1.66;nan;98145.97;6217450;28;20277;-61
2023/01/22 06:20:19;;;;;;;13.90;9.57;;;;;;;-1.66;nan;98145.97;6211293;28;20243;-62
2023/01/22 06:23:21;;;;;;;14.87;10.00;;;;;;;-1.66;nan;98147.69;6216326;28;20224;-62
2023/01/22 06:26:24;;;;;;;13.47;9.83;;;;;;;-1.66;nan;98145.97;6212254;28;20235;-61
2023/01/22 06:29:26;;;;;;;15.37;10.73;;;;;;;-1.69;nan;98148.59;6215016;28;20236;-61
2023/01/22 06:32:29;;;;;;;14.83;10.47;;;;;;;-1.69;nan;98155.53;6197772;28;20231;-61
2023/01/22 06:35:33;;;;;;;15.47;10.67;;;;;;;-1.69;nan;98158.09;6211713;28;20240;-63
2023/01/22 06:38:36;;;;;;;15.90;10.60;;;;;;;-1.69;nan;98158.97;6216411;28;20254;-61
2023/01/22 06:41:39;;;;;;;15.23;10.73;;;;;;;-1.69;nan;98155.53;6218157;28;20239;-64
2023/01/22 06:44:46;;;;;;;17.00;10.23;;;;;;;-1.68;nan;98168.41;6210181;28;20796;-61
2023/01/22 06:47:49;;;;;;;12.30;9.20;;;;;;;-1.67;nan;98159.78;6214886;28;20234;-61
2023/01/22 06:50:56;;;;;;;13.30;8.63;;;;;;;-1.65;nan;98160.59;6211126;28;20228;-61
2023/01/22 06:53:58;;;;;;;13.30;9.13;;;;;;;-1.64;nan;98164.88;6209090;28;20712;-61
2023/01/22 06:57:01;;;;;;;12.33;8.73;;;;;;;-1.62;nan;98172.63;6213261;28;20603;-61
2023/01/22 07:00:06;;;;;;;12.70;9.13;;;;;;;-1.60;nan;98163.09;6217321;28;20201;-61
2023/01/22 07:03:08;;;;;;;12.60;8.67;;;;;;;-1.60;nan;98176.03;6214086;28;20274;-61
2023/01/22 07:06:10;;;;;;;12.00;8.47;;;;;;;-1.59;nan;98163.03;6215600;28;20608;-61
2023/01/22 07:09:14;;;;;;;12.10;8.40;;;;;;;-1.55;nan;98166.41;6233275;28;20650;-63
2023/01/22 07:12:16;;;;;;;13.07;8.87;;;;;;;-1.55;nan;98163.81;6223334;28;20622;-61
2023/01/22 07:15:18;;;;;;;12.83;9.13;;;;;;;-1.54;nan;98163.78;6242579;28;20269;-61
2023/01/22 07:18:22;;;;;;;12.90;8.47;;;;;;;-1.53;nan;98170.66;6233302;28;20233;-61
2023/01/22 07:21:26;;;;;;;11.50;8.53;;;;;;;-1.52;nan;98182.72;6241521;28;20230;-62
2023/01/22 07:24:28;;;;;;;12.37;9.10;;;;;;;-1.49;nan;98174.84;6238288;28;20238;-62
2023/01/22 07:27:33;;;;;;;11.97;8.60;;;;;;;-1.45;nan;98174.78;6234085;28;20316;-61
2023/01/22 07:30:36;;;;;;;11.53;8.80;;;;;;;-1.46;nan;98178.25;6239514;28;20233;-62
2023/01/22 07:33:38;;;;;;;9.93;7.90;;;;;;;-1.43;nan;98180.78;6241794;28;20337;-62
2023/01/22 07:36:40;;;;;;;11.53;8.77;;;;;;;-1.42;nan;98179.91;6236244;28;20345;-62
2023/01/22 07:39:43;;;;;;;12.33;8.50;;;;;;;-1.44;nan;98174.75;6233557;28;20319;-61
2023/01/22 07:42:46;;;;;;;12.57;8.90;;;;;;;-1.41;nan;98184.19;6237677;28;20737;-62
2023/01/22 07:45:48;;;;;;;13.03;9.07;;;;;;;-1.39;nan;98195.34;6239138;28;20234;-61
2023/01/22 07:48:50;;;;;;;13.57;9.43;;;;;;;-1.39;nan;98191.00;6233241;28;20638;-62
2023/01/22 07:51:52;;;;;;;11.73;8.50;;;;;;;-1.37;nan;98190.97;6245593;28;20276;-62
2023/01/22 07:54:54;;;;;;;12.47;8.57;;;;;;;-1.39;nan;98203.09;6242088;28;20227;-62
2023/01/22 07:57:58;;;;;;;11.27;7.90;;;;;;;-1.37;nan;98201.31;6227593;28;20234;-62
2023/01/22 08:01:07;;;;;;;11.40;7.93;;;;;;;-1.36;nan;98206.47;6239544;28;20318;-62
2023/01/22 08:04:09;;;;;;;10.73;7.97;;;;;;;-1.33;nan;98206.41;6241225;28;20603;-62
2023/01/22 08:07:16;;;;;;;11.47;8.13;;;;;;;-1.31;nan;98206.38;6243458;28;20243;-62
2023/01/22 08:10:19;;;;;;;11.67;8.40;;;;;;;-1.26;nan;98210.53;6235678;28;20239;-63
2023/01/22 08:13:22;;;;;;;12.67;8.03;;;;;;;-1.26;nan;98215.72;6244075;28;20265;-62
2023/01/22 08:16:24;;;;;;;10.80;8.43;;;;;;;-1.23;nan;98214.78;6215825;28;20223;-62
2023/01/22 08:19:28;;;;;;;10.97;7.33;;;;;;;-1.19;nan;98226.75;6236992;28;20894;-62
2023/01/22 08:22:31;;;;;;;11.87;8.43;;;;;;;-1.21;nan;98220.78;6239476;28;20265;-62
2023/01/22 08:25:34;;;;;;;10.30;7.87;;;;;;;-1.22;nan;98225.13;6242118;28;20239;-62
2023/01/22 08:28:38;;;;;;;12.20;7.93;;;;;;;-1.20;nan;98231.09;6243927;28;20610;-62
2023/01/22 08:31:41;;;;;;;11.87;8.30;;;;;;;-1.20;nan;98225.91;6247110;28;20737;-62
2023/01/22 08:34:43;;;;;;;11.07;7.60;;;;;;;-1.16;nan;98235.31;6243937;28;20644;-63
2023/01/22 08:37:45;;;;;;;10.97;7.93;;;;;;;-1.16;nan;98229.28;6243400;28;20243;-62
2023/01/22 08:40:50;;;;;;;10.73;7.77;;;;;;;-1.17;nan;98230.16;6247483;28;20265;-62
2023/01/22 08:43:53;;;;;;;13.50;9.00;;;;;;;-1.16;nan;98234.47;6236654;28;20727;-62
2023/01/22 08:46:56;;;;;;;12.70;9.13;;;;;;;-1.20;nan;98238.84;6240942;28;20246;-62
2023/01/22 08:50:00;;;;;;;12.33;8.23;;;;;;;-1.20;nan;98243.22;6221188;28;20227;-62
2023/01/22 08:53:03;;;;;;;10.87;8.10;;;;;;;-1.17;nan;98245.69;6243124;28;20392;-62
2023/01/22 08:56:07;;;;;;;10.77;7.70;;;;;;;-1.16;nan;98245.66;6238974;28;20578;-62
2023/01/22 08:59:10;;;;;;;11.23;7.90;;;;;;;-1.09;nan;98248.09;6237750;28;20223;-62
2023/01/22 09:02:13;;;;;;;11.67;8.10;;;;;;;-1.08;nan;98252.38;6239922;28;20259;-62
2023/01/22 09:05:15;;;;;;;12.57;8.47;;;;;;;-1.06;nan;98253.22;6238552;28;20292;-62
2023/01/22 09:08:18;;;;;;;11.30;7.77;;;;;;;-1.07;nan;98262.72;6240881;28;20232;-62
2023/01/22 09:11:20;;;;;;;11.40;7.93;;;;;;;-1.08;nan;98261.00;6239390;28;20278;-62
2023/01/22 09:14:22;;;;;;;11.07;8.50;;;;;;;-1.09;nan;98261.03;6241354;28;20234;-62
2023/01/22 09:17:25;;;;;;;12.47;8.87;;;;;;;-1.06;nan;98277.38;6241445;28;20328;-62
2023/01/22 09:20:28;;;;;;;10.37;7.30;;;;;;;-1.00;nan;98269.47;6239705;28;20231;-62
2023/01/22 09:23:30;;;;;;;10.97;7.57;;;;;;;-0.96;nan;98263.31;6236685;28;20231;-61
2023/01/22 09:26:32;;;;;;;11.50;7.40;;;;;;;-0.92;nan;98277.91;6243469;28;20245;-63
2023/01/22 09:29:35;;;;;;;10.97;7.57;;;;;;;-0.84;nan;98281.13;6240692;28;20265;-63
2023/01/22 09:32:40;;;;;;;12.07;7.77;;;;;;;-0.73;nan;98275.69;6242667;28;20239;-63
2023/01/22 09:35:42;;;;;;;11.70;7.43;;;;;;;-0.70;nan;98274.75;6217584;28;20231;-62
2023/01/22 09:38:44;;;;;;;11.83;6.97;;;;;;;-0.66;nan;98266.00;6235107;28;20607;-62
2023/01/22 09:41:53;;;;;;;12.87;7.70;;;;;;;-0.55;nan;98272.59;6242538;28;20265;-62
2023/01/22 09:45:04;;;;;;;10.30;7.50;;;;;;;-0.51;nan;98273.38;6239736;28;20278;-62
2023/01/22 09:48:13;;;;;;;10.40;7.80;;;;;;;-0.52;nan;98276.88;6239637;28;20239;-62
2023/01/22 09:51:15;;;;;;;10.13;7.57;;;;;;;-0.48;nan;98268.09;6240406;28;20224;-62
2023/01/22 09:54:28;;;;;;;9.27;7.03;;;;;;;-0.43;nan;98281.81;6242439;28;20284;-61
2023/01/22 09:57:30;;;;;;;10.40;7.00;;;;;;;-0.40;nan;98268.75;6242944;28;20227;-62
2023/01/22 10:00:46;;;;;;;10.80;7.53;;;;;;;-0.28;nan;98271.00;6244337;28;20222;-62
2023/01/22 10:03:53;;;;;;;10.30;7.60;;;;;;;-0.29;nan;98269.28;6232347;28;20216;-62
2023/01/22 10:06:59;;;;;;;9.63;6.90;;;;;;;-0.15;nan;98272.38;6239288;28;20227;-60
2023/01/22 10:10:23;;;;;;;9.43;6.77;;;;;;;0.11;nan;98281.13;6239851;28;20235;-62
2023/01/22 10:13:34;;;;;;;8.43;6.57;;;;;;;0.20;nan;98294.69;6239107;28;20246;-61
2023/01/22 10:16:41;;;;;;;9.13;6.50;;;;;;;0.24;nan;98282.50;6237600;28;20227;-62
2023/01/22 10:19:46;;;;;;;8.10;6.20;;;;;;;0.33;nan;98287.41;6244424;28;20564;-62
2023/01/22 10:22:51;;;;;;;8.30;6.17;;;;;;;0.50;nan;98297.31;6240315;28;20238;-61
2023/01/22 10:26:06;;;;;;;8.17;6.03;;;;;;;0.56;nan;98297.09;6218146;28;20240;-61
2023/01/22 10:29:24;;;;;;;8.87;6.37;;;;;;;0.61;nan;98305.59;6217002;28;20243;-61
2023/01/22 10:32:29;;;;;;;8.17;6.07;;;;;;;0.76;nan;98296.50;6239272;28;20236;-60
2023/01/22 10:35:42;;;;;;;8.33;6.10;;;;;;;0.79;nan;98291.22;6237881;28;20231;-61
2023/01/22 10:38:44;;;;;;;8.43;5.63;;;;;;;0.69;nan;98296.69;6239137;28;20223;-62
2023/01/22 10:41:47;;;;;;;7.60;5.10;;;;;;;0.77;nan;98296.44;6239901;28;20227;-61
2023/01/22 10:45:07;;;;;;;6.50;5.40;;;;;;;0.67;nan;98295.88;6238727;28;20231;-62
2023/01/22 10:48:18;;;;;;;8.20;5.47;;;;;;;0.67;nan;98303.69;6237171;28;20236;-61
2023/01/22 10:51:26;;;;;;;7.47;5.53;;;;;;;0.77;nan;98287.81;6239092;28;20216;-62
2023/01/22 10:54:32;;;;;;;6.53;5.17;;;;;;;0.85;nan;98298.81;6239316;28;20240;-62
2023/01/22 10:57:35;;;;;;;7.67;5.43;;;;;;;0.74;nan;98300.00;6240594;28;20310;-62
2023/01/22 11:00:39;;;;;;;6.40;4.80;;;;;;;0.98;nan;98300.13;6235405;28;20231;-62
2023/01/22 11:03:53;;;;;;;6.23;4.57;;;;;;;0.95;nan;98301.06;6237635;28;20323;-61
2023/01/22 11:07:05;;;;;;;5.87;4.57;;;;;;;1.21;nan;98295.00;6238389;28;20262;-62
2023/01/22 11:10:15;;;;;;;5.27;4.00;;;;;;;1.51;nan;98297.47;6239757;28;20227;-62
2023/01/22 11:13:41;;;;;;;6.57;4.83;;;;;;;1.74;nan;98292.34;6233620;28;20238;-61
2023/01/22 11:16:48;;;;;;;5.83;4.57;;;;;;;1.81;nan;98296.41;6235415;28;20593;-62
2023/01/22 11:20:01;;;;;;;5.83;4.83;;;;;;;2.16;nan;98295.16;6232833;28;20227;-61
2023/01/22 11:23:22;;;;;;;6.47;4.50;;;;;;;2.72;nan;98297.34;6218040;28;20233;-62
2023/01/22 11:26:57;;;;;;;5.97;4.70;;;;;;;3.08;nan;98285.47;6235990;28;20310;-62
2023/01/22 11:30:42;;;;;;;4.73;3.73;;;;;;;3.37;nan;98283.44;6233385;28;20276;-62
2023/01/22 11:34:11;;;;;;;4.80;4.00;;;;;;;3.49;nan;98285.53;6104494;28;20235;-63
2023/01/22 11:37:18;;;;;;;5.63;4.30;;;;;;;3.40;nan;98286.72;6122104;28;20793;-63
2023/01/22 11:40:27;;;;;;;5.70;4.43;;;;;;;3.14;nan;98290.44;6123510;28;20235;-61
2023/01/22 11:43:38;;;;;;;5.03;3.93;;;;;;;2.92;nan;98289.59;6107995;28;20838;-62
2023/01/22 11:46:59;;;;;;;6.40;4.97;;;;;;;3.02;nan;98282.25;6121597;28;20662;-62
2023/01/22 11:50:11;;;;;;;6.03;3.83;;;;;;;3.22;nan;98290.97;6122098;29;20341;-62
2023/01/22 11:53:47;;;;;;;5.90;4.00;;;;;;;2.95;nan;98287.72;6122354;28;20233;-63
2023/01/22 11:57:18;;;;;;;5.20;4.17;;;;;;;2.76;nan;98281.53;6119748;28;20321;-62
2023/01/22 12:00:44;;;;;;;6.67;4.40;;;;;;;2.72;nan;98292.13;6120036;28;20723;-62
2023/01/22 12:04:12;;;;;;;5.93;4.60;;;;;;;2.28;nan;98288.66;6119165;28;20710;-62
2023/01/22 12:07:52;;;;;;;5.10;4.10;;;;;;;1.77;nan;98287.88;6116483;28;20247;-62
2023/01/22 12:11:05;;;;;;;6.77;4.77;;;;;;;1.78;nan;98284.38;6206601;28;20232;-62
2023/01/22 12:14:35;;;;;;;6.33;4.70;;;;;;;1.60;nan;98282.41;6240359;28;20618;-62
2023/01/22 12:17:59;;;;;;;6.07;4.80;;;;;;;1.60;nan;98291.97;6239871;28;20227;-61
2023/01/22 12:21:08;;;;;;;6.37;4.73;;;;;;;1.34;nan;98288.50;6240481;28;20229;-62
2023/01/22 12:24:33;;;;;;;5.57;4.43;;;;;;;1.42;nan;98293.44;6238748;28;20237;-61
2023/01/22 12:27:42;;;;;;;7.13;4.77;;;;;;;1.48;nan;98294.09;6244506;28;20239;-62
2023/01/22 12:31:03;;;;;;;6.77;4.70;;;;;;;1.71;nan;98289.81;6241154;28;20309;-61
2023/01/22 12:34:21;;;;;;;5.77;4.63;;;;;;;1.83;nan;98292.84;6245190;28;20224;-62
2023/01/22 12:37:35;;;;;;;5.43;4.23;;;;;;;1.85;nan;98292.81;6210149;28;20243;-62
2023/01/22 12:41:11;;;;;;;6.57;4.50;;;;;;;1.45;nan;98302.00;6210987;28;20232;-62
2023/01/22 12:44:26;;;;;;;6.73;4.87;;;;;;;1.16;nan;98298.66;6212038;28;20613;-60
2023/01/22 12:47:48;;;;;;;5.60;4.27;;;;;;;1.13;nan;98310.00;6211187;28;20250;-62
2023/01/22 12:50:54;;;;;;;6.53;4.30;;;;;;;0.92;nan;98314.13;6211305;28;20253;-62
2023/01/22 12:54:15;;;;;;;7.57;5.53;;;;;;;0.90;nan;98315.94;6210720;28;20238;-61
2023/01/22 12:57:23;;;;;;;6.43;4.87;;;;;;;0.85;nan;98325.63;6211557;28;20241;-62
2023/01/22 13:00:37;;;;;;;7.40;5.73;;;;;;;0.95;nan;98329.66;6211358;28;20822;-62
2023/01/22 13:03:41;;;;;;;6.40;5.03;;;;;;;1.14;nan;98329.91;6210354;28;20302;-62
2023/01/22 13:06:45;;;;;;;7.77;5.53;;;;;;;1.07;nan;98344.00;6211108;28;20241;-62
2023/01/22 13:09:47;;;;;;;8.93;6.47;;;;;;;0.95;nan;98337.44;6211337;28;20290;-62
2023/01/22 13:12:53;;;;;;;8.83;5.77;;;;;;;1.04;nan;98326.75;6212530;28;20901;-61
2023/01/22 13:16:02;;;;;;;7.57;6.00;;;;;;;1.19;nan;98333.22;6212534;28;20657;-61
2023/01/22 13:19:22;;;;;;;7.77;5.67;;;;;;;1.24;nan;98326.09;6210263;28;20243;-62
2023/01/22 13:22:26;;;;;;;7.13;5.80;;;;;;;0.97;nan;98332.19;6210903;28;20628;-62
2023/01/22 13:25:32;;;;;;;7.33;5.83;;;;;;;1.03;nan;98334.59;6211047;28;20601;-62
2023/01/22 13:28:37;;;;;;;8.83;6.47;;;;;;;0.98;nan;98344.28;6194100;28;20276;-62
2023/01/22 13:31:39;;;;;;;7.07;5.23;;;;;;;0.86;nan;98355.91;6210646;28;20246;-61
2023/01/22 13:34:42;;;;;;;8.83;6.23;;;;;;;0.90;nan;98349.72;6210379;28;20588;-61
2023/01/22 13:37:50;;;;;;;7.57;6.43;;;;;;;0.81;nan;98351.75;6210924;28;20272;-61
2023/01/22 13:41:01;;;;;;;8.90;6.00;;;;;;;0.85;nan;98359.41;6211304;28;20618;-61
2023/01/22 13:44:17;;;;;;;6.93;5.30;;;;;;;0.85;nan;98363.75;6210783;28;20243;-62
2023/01/22 13:47:30;;;;;;;7.77;5.80;;;;;;;0.97;nan;98365.97;6210808;28;20239;-58
2023/01/22 13:50:37;;;;;;;8.27;5.67;;;;;;;0.99;nan;98372.00;6192550;28;20283;-61
2023/01/22 13:53:46;;;;;;;7.33;6.10;;;;;;;0.79;nan;98369.16;6193354;28;20246;-59
2023/01/22 13:56:52;;;;;;;7.57;5.67;;;;;;;0.59;nan;98368.00;6210682;28;20231;-61
2023/01/22 13:59:57;;;;;;;7.30;5.73;;;;;;;0.58;nan;98379.28;6210837;28;20260;-59
2023/01/22 14:03:00;;;;;;;8.10;6.27;;;;;;;0.59;nan;98374.94;6208207;28;20631;-61
2023/01/22 14:06:14;;;;;;;7.70;5.77;;;;;;;0.60;nan;98376.63;6193103;28;20242;-61
2023/01/22 14:09:39;;;;;;;9.87;6.03;;;;;;;0.65;nan;98385.13;6210429;28;20248;-61
2023/01/22 14:12:42;;;;;;;8.27;5.93;;;;;;;0.62;nan;98388.66;6208502;28;20233;-61
2023/01/22 14:15:58;;;;;;;9.43;6.67;;;;;;;0.68;nan;98387.66;6209992;28;20237;-61
2023/01/22 14:19:02;;;;;;;9.67;6.83;;;;;;;0.59;nan;98388.78;6192751;28;20236;-61
2023/01/22 14:22:05;;;;;;;8.63;6.37;;;;;;;0.52;nan;98391.56;6209366;28;20232;-61
2023/01/22 14:25:08;;;;;;;7.03;5.83;;;;;;;0.34;nan;98391.19;6210183;28;20248;-61
2023/01/22 14:28:12;;;;;;;9.63;6.73;;;;;;;0.26;nan;98392.31;6191692;28;20244;-59
2023/01/22 14:31:14;;;;;;;8.70;6.87;;;;;;;0.15;nan;98402.13;6209217;28;20247;-61
2023/01/22 14:34:19;;;;;;;10.33;7.33;;;;;;;0.10;nan;98410.03;6209134;28;20689;-61
2023/01/22 14:37:21;;;;;;;10.47;7.87;;;;;;;-0.02;nan;98410.38;6209611;28;20778;-61
2023/01/22 14:40:29;;;;;;;8.33;6.80;;;;;;;-0.11;nan;98426.19;6209939;28;20711;-61
2023/01/22 14:43:33;;;;;;;10.53;7.03;;;;;;;-0.15;nan;98414.19;6193333;28;20327;-60
2023/01/22 14:46:36;;;;;;;8.97;6.97;;;;;;;-0.21;nan;98412.59;6208957;28;20244;-60
2023/01/22 14:49:39;;;;;;;8.93;7.13;;;;;;;-0.27;nan;98412.75;6208809;28;20720;-58
2023/01/22 14:52:44;;;;;;;9.27;7.30;;;;;;;-0.35;nan;98419.00;6209794;28;20232;-60
2023/01/22 14:55:47;;;;;;;11.40;7.73;;;;;;;-0.43;nan;98429.59;6209079;28;20324;-60
2023/01/22 14:58:50;;;;;;;10.37;7.63;;;;;;;-0.48;nan;98428.81;6209839;28;20639;-60
2023/01/22 15:01:53;;;;;;;10.80;7.97;;;;;;;-0.52;nan;98437.59;6208947;28;20743;-59
2023/01/22 15:04:56;;;;;;;10.63;8.17;;;;;;;-0.55;nan;98442.84;6207847;28;20716;-61